sensor_id;sensor_type;location;lat;lon;timestamp;temperature;humidity
73955;DHT22;62306;52.516;13.290;2023-06-14T00:01:53;15.40;79.20
73955;DHT22;62306;52.516;13.290;2023-06-14T00:04:22;15.30;79.70
73955;DHT22;62306;52.516;13.290;2023-06-14T00:06:50;15.30;80.00
73955;DHT22;62306;52.516;13.290;2023-06-14T00:09:18;15.30;80.50
73955;DHT22;62306;52.516;13.290;2023-06-14T00:11:45;15.30;81.00
73955;DHT22;62306;52.516;13.290;2023-06-14T00:14:11;15.20;81.20
73955;DHT22;62306;52.516;13.290;2023-06-14T00:16:39;15.20;81.30
73955;DHT22;62306;52.516;13.290;2023-06-14T00:19:07;15.20;81.70
73955;DHT22;62306;52.516;13.290;2023-06-14T00:21:37;15.20;82.10
73955;DHT22;62306;52.516;13.290;2023-06-14T00:24:05;15.10;82.90
73955;DHT22;62306;52.516;13.290;2023-06-14T00:26:32;15.10;83.60
73955;DHT22;62306;52.516;13.290;2023-06-14T00:28:59;15.10;84.30
73955;DHT22;62306;52.516;13.290;2023-06-14T00:31:26;15.10;84.40
73955;DHT22;62306;52.516;13.290;2023-06-14T00:33:52;15.10;84.80
73955;DHT22;62306;52.516;13.290;2023-06-14T00:36:19;15.00;85.20
73955;DHT22;62306;52.516;13.290;2023-06-14T00:38:48;15.00;85.50
73955;DHT22;62306;52.516;13.290;2023-06-14T00:41:15;15.00;86.10
73955;DHT22;62306;52.516;13.290;2023-06-14T00:43:41;15.00;86.40
73955;DHT22;62306;52.516;13.290;2023-06-14T00:46:08;15.00;86.60
73955;DHT22;62306;52.516;13.290;2023-06-14T00:48:36;15.00;87.10
73955;DHT22;62306;52.516;13.290;2023-06-14T00:51:03;14.90;87.60
73955;DHT22;62306;52.516;13.290;2023-06-14T00:53:31;14.90;88.20
73955;DHT22;62306;52.516;13.290;2023-06-14T00:56:01;14.90;88.60
73955;DHT22;62306;52.516;13.290;2023-06-14T00:58:28;14.90;89.00
73955;DHT22;62306;52.516;13.290;2023-06-14T01:00:55;14.90;89.10
73955;DHT22;62306;52.516;13.290;2023-06-14T01:03:23;14.90;89.20
73955;DHT22;62306;52.516;13.290;2023-06-14T01:05:56;15.00;89.80
73955;DHT22;62306;52.516;13.290;2023-06-14T01:08:34;15.00;90.00
73955;DHT22;62306;52.516;13.290;2023-06-14T01:11:12;15.00;90.10
73955;DHT22;62306;52.516;13.290;2023-06-14T01:13:45;15.00;90.30
73955;DHT22;62306;52.516;13.290;2023-06-14T01:16:12;14.90;90.40
73955;DHT22;62306;52.516;13.290;2023-06-14T01:18:41;14.80;90.50
73955;DHT22;62306;52.516;13.290;2023-06-14T01:21:20;14.80;90.90
73955;DHT22;62306;52.516;13.290;2023-06-14T01:23:49;14.80;91.10
73955;DHT22;62306;52.516;13.290;2023-06-14T01:26:19;14.80;91.20
73955;DHT22;62306;52.516;13.290;2023-06-14T01:28:46;14.80;91.50
73955;DHT22;62306;52.516;13.290;2023-06-14T01:31:17;14.80;91.50
73955;DHT22;62306;52.516;13.290;2023-06-14T01:33:45;14.80;91.50
73955;DHT22;62306;52.516;13.290;2023-06-14T01:36:13;14.80;91.70
73955;DHT22;62306;52.516;13.290;2023-06-14T01:38:41;14.80;91.90
73955;DHT22;62306;52.516;13.290;2023-06-14T01:41:10;14.70;92.00
73955;DHT22;62306;52.516;13.290;2023-06-14T01:43:38;14.70;92.20
73955;DHT22;62306;52.516;13.290;2023-06-14T01:46:06;14.70;92.30
73955;DHT22;62306;52.516;13.290;2023-06-14T01:48:34;14.60;92.40
73955;DHT22;62306;52.516;13.290;2023-06-14T01:51:02;14.70;92.50
73955;DHT22;62306;52.516;13.290;2023-06-14T01:53:29;14.70;92.60
73955;DHT22;62306;52.516;13.290;2023-06-14T01:55:56;14.80;92.40
73955;DHT22;62306;52.516;13.290;2023-06-14T01:58:24;14.80;92.40
73955;DHT22;62306;52.516;13.290;2023-06-14T02:00:52;14.80;92.50
73955;DHT22;62306;52.516;13.290;2023-06-14T02:03:20;14.80;92.50
73955;DHT22;62306;52.516;13.290;2023-06-14T02:05:48;14.80;92.60
73955;DHT22;62306;52.516;13.290;2023-06-14T02:08:15;14.80;92.80
73955;DHT22;62306;52.516;13.290;2023-06-14T02:10:42;14.70;92.80
73955;DHT22;62306;52.516;13.290;2023-06-14T02:13:09;14.30;92.90
73955;DHT22;62306;52.516;13.290;2023-06-14T02:15:38;14.60;93.30
73955;DHT22;62306;52.516;13.290;2023-06-14T02:18:05;14.50;93.60
73955;DHT22;62306;52.516;13.290;2023-06-14T02:20:33;14.40;93.80
73955;DHT22;62306;52.516;13.290;2023-06-14T02:23:01;14.40;94.00
73955;DHT22;62306;52.516;13.290;2023-06-14T02:25:28;14.40;94.20
73955;DHT22;62306;52.516;13.290;2023-06-14T02:27:55;14.30;94.50
73955;DHT22;62306;52.516;13.290;2023-06-14T02:30:22;14.20;94.80
73955;DHT22;62306;52.516;13.290;2023-06-14T02:32:50;14.20;94.90
73955;DHT22;62306;52.516;13.290;2023-06-14T02:35:19;14.20;95.00
73955;DHT22;62306;52.516;13.290;2023-06-14T02:37:47;14.20;95.20
73955;DHT22;62306;52.516;13.290;2023-06-14T02:40:15;14.20;95.20
73955;DHT22;62306;52.516;13.290;2023-06-14T02:42:41;14.20;95.30
73955;DHT22;62306;52.516;13.290;2023-06-14T02:45:09;14.20;95.20
73955;DHT22;62306;52.516;13.290;2023-06-14T02:47:35;14.20;95.20
73955;DHT22;62306;52.516;13.290;2023-06-14T02:50:05;14.30;95.10
73955;DHT22;62306;52.516;13.290;2023-06-14T02:52:33;14.20;95.30
73955;DHT22;62306;52.516;13.290;2023-06-14T02:55:00;14.20;95.40
73955;DHT22;62306;52.516;13.290;2023-06-14T02:57:27;14.10;95.60
73955;DHT22;62306;52.516;13.290;2023-06-14T02:59:54;14.10;95.60
73955;DHT22;62306;52.516;13.290;2023-06-14T03:02:20;14.10;95.50
73955;DHT22;62306;52.516;13.290;2023-06-14T03:04:47;14.10;95.40
73955;DHT22;62306;52.516;13.290;2023-06-14T03:07:16;14.10;95.40
73955;DHT22;62306;52.516;13.290;2023-06-14T03:09:45;14.10;95.60
73955;DHT22;62306;52.516;13.290;2023-06-14T03:12:12;14.10;95.80
73955;DHT22;62306;52.516;13.290;2023-06-14T03:14:40;14.00;95.90
73955;DHT22;62306;52.516;13.290;2023-06-14T03:17:08;14.00;96.00
73955;DHT22;62306;52.516;13.290;2023-06-14T03:19:36;14.00;96.20
73955;DHT22;62306;52.516;13.290;2023-06-14T03:22:03;14.00;96.20
73955;DHT22;62306;52.516;13.290;2023-06-14T03:24:31;14.00;96.40
73955;DHT22;62306;52.516;13.290;2023-06-14T03:27:02;14.00;96.50
73955;DHT22;62306;52.516;13.290;2023-06-14T03:29:29;14.00;96.40
73955;DHT22;62306;52.516;13.290;2023-06-14T03:31:58;14.00;96.40
73955;DHT22;62306;52.516;13.290;2023-06-14T03:34:25;14.00;96.40
73955;DHT22;62306;52.516;13.290;2023-06-14T03:36:52;14.10;96.30
73955;DHT22;62306;52.516;13.290;2023-06-14T03:39:19;14.20;96.10
73955;DHT22;62306;52.516;13.290;2023-06-14T03:41:47;14.30;96.00
73955;DHT22;62306;52.516;13.290;2023-06-14T03:44:15;14.30;96.00
73955;DHT22;62306;52.516;13.290;2023-06-14T03:46:43;14.30;96.00
73955;DHT22;62306;52.516;13.290;2023-06-14T03:49:10;14.30;96.00
73955;DHT22;62306;52.516;13.290;2023-06-14T03:51:37;14.30;95.90
73955;DHT22;62306;52.516;13.290;2023-06-14T03:54:05;14.50;95.70
73955;DHT22;62306;52.516;13.290;2023-06-14T03:56:32;14.50;95.40
73955;DHT22;62306;52.516;13.290;2023-06-14T03:59:01;14.60;95.40
73955;DHT22;62306;52.516;13.290;2023-06-14T04:01:28;14.60;95.30
73955;DHT22;62306;52.516;13.290;2023-06-14T04:03:56;14.70;95.30
73955;DHT22;62306;52.516;13.290;2023-06-14T04:06:24;14.80;95.00
73955;DHT22;62306;52.516;13.290;2023-06-14T04:08:58;15.00;94.80
73955;DHT22;62306;52.516;13.290;2023-06-14T04:11:29;15.30;94.20
73955;DHT22;62306;52.516;13.290;2023-06-14T04:13:56;15.50;93.70
73955;DHT22;62306;52.516;13.290;2023-06-14T04:16:24;15.70;93.30
73955;DHT22;62306;52.516;13.290;2023-06-14T04:18:51;15.80;93.00
73955;DHT22;62306;52.516;13.290;2023-06-14T04:21:19;15.80;92.90
73955;DHT22;62306;52.516;13.290;2023-06-14T04:23:46;15.80;93.10
73955;DHT22;62306;52.516;13.290;2023-06-14T04:26:13;15.70;93.00
73955;DHT22;62306;52.516;13.290;2023-06-14T04:28:41;15.80;93.30
73955;DHT22;62306;52.516;13.290;2023-06-14T04:31:10;15.80;92.70
73955;DHT22;62306;52.516;13.290;2023-06-14T04:33:38;15.90;92.70
73955;DHT22;62306;52.516;13.290;2023-06-14T04:36:09;16.00;92.60
73955;DHT22;62306;52.516;13.290;2023-06-14T04:38:37;16.10;92.20
73955;DHT22;62306;52.516;13.290;2023-06-14T04:41:04;16.00;92.60
73955;DHT22;62306;52.516;13.290;2023-06-14T04:43:31;16.00;92.50
73955;DHT22;62306;52.516;13.290;2023-06-14T04:46:04;16.00;92.60
73955;DHT22;62306;52.516;13.290;2023-06-14T04:48:36;16.00;92.50
73955;DHT22;62306;52.516;13.290;2023-06-14T04:51:07;16.00;92.30
73955;DHT22;62306;52.516;13.290;2023-06-14T04:53:35;16.10;92.40
73955;DHT22;62306;52.516;13.290;2023-06-14T04:56:02;16.30;92.10
73955;DHT22;62306;52.516;13.290;2023-06-14T04:58:30;16.40;91.70
73955;DHT22;62306;52.516;13.290;2023-06-14T05:00:57;16.40;91.20
73955;DHT22;62306;52.516;13.290;2023-06-14T05:03:24;16.50;91.10
73955;DHT22;62306;52.516;13.290;2023-06-14T05:05:52;16.70;91.00
73955;DHT22;62306;52.516;13.290;2023-06-14T05:08:20;16.80;90.20
73955;DHT22;62306;52.516;13.290;2023-06-14T05:10:49;16.60;90.60
73955;DHT22;62306;52.516;13.290;2023-06-14T05:13:15;16.90;90.30
73955;DHT22;62306;52.516;13.290;2023-06-14T05:15:42;16.80;90.20
73955;DHT22;62306;52.516;13.290;2023-06-14T05:18:10;16.80;90.50
73955;DHT22;62306;52.516;13.290;2023-06-14T05:20:38;17.20;89.60
73955;DHT22;62306;52.516;13.290;2023-06-14T05:23:08;17.30;89.00
73955;DHT22;62306;52.516;13.290;2023-06-14T05:25:42;17.20;89.00
73955;DHT22;62306;52.516;13.290;2023-06-14T05:28:09;17.20;89.20
73955;DHT22;62306;52.516;13.290;2023-06-14T05:30:38;17.00;89.30
73955;DHT22;62306;52.516;13.290;2023-06-14T05:33:05;16.90;90.10
73955;DHT22;62306;52.516;13.290;2023-06-14T05:35:32;16.80;90.20
73955;DHT22;62306;52.516;13.290;2023-06-14T05:37:58;16.80;90.00
73955;DHT22;62306;52.516;13.290;2023-06-14T05:40:25;16.70;90.20
73955;DHT22;62306;52.516;13.290;2023-06-14T05:42:54;16.60;90.70
73955;DHT22;62306;52.516;13.290;2023-06-14T05:45:20;16.70;90.70
73955;DHT22;62306;52.516;13.290;2023-06-14T05:47:47;16.90;90.50
73955;DHT22;62306;52.516;13.290;2023-06-14T05:50:14;17.20;90.30
73955;DHT22;62306;52.516;13.290;2023-06-14T05:52:41;17.40;89.80
73955;DHT22;62306;52.516;13.290;2023-06-14T05:55:09;17.40;89.30
73955;DHT22;62306;52.516;13.290;2023-06-14T05:57:37;17.50;88.90
73955;DHT22;62306;52.516;13.290;2023-06-14T06:00:07;17.50;88.80
73955;DHT22;62306;52.516;13.290;2023-06-14T06:02:39;17.50;88.90
73955;DHT22;62306;52.516;13.290;2023-06-14T06:05:07;17.50;89.10
73955;DHT22;62306;52.516;13.290;2023-06-14T06:07:34;17.50;88.90
73955;DHT22;62306;52.516;13.290;2023-06-14T06:10:01;17.50;89.30
73955;DHT22;62306;52.516;13.290;2023-06-14T06:12:28;17.40;89.40
73955;DHT22;62306;52.516;13.290;2023-06-14T06:14:55;17.40;89.90
73955;DHT22;62306;52.516;13.290;2023-06-14T06:17:24;17.30;89.80
73955;DHT22;62306;52.516;13.290;2023-06-14T06:19:51;17.40;89.60
73955;DHT22;62306;52.516;13.290;2023-06-14T06:22:18;17.40;89.50
73955;DHT22;62306;52.516;13.290;2023-06-14T06:24:45;17.30;89.50
73955;DHT22;62306;52.516;13.290;2023-06-14T06:27:12;17.30;90.00
73955;DHT22;62306;52.516;13.290;2023-06-14T06:29:42;17.30;90.10
73955;DHT22;62306;52.516;13.290;2023-06-14T06:32:09;17.30;90.10
73955;DHT22;62306;52.516;13.290;2023-06-14T06:34:37;17.30;90.10
73955;DHT22;62306;52.516;13.290;2023-06-14T06:37:05;17.40;90.00
73955;DHT22;62306;52.516;13.290;2023-06-14T06:39:32;17.30;90.00
73955;DHT22;62306;52.516;13.290;2023-06-14T06:41:59;17.30;90.00
73955;DHT22;62306;52.516;13.290;2023-06-14T06:44:25;17.30;90.10
73955;DHT22;62306;52.516;13.290;2023-06-14T06:46:53;17.30;90.00
73955;DHT22;62306;52.516;13.290;2023-06-14T06:49:19;17.20;90.10
73955;DHT22;62306;52.516;13.290;2023-06-14T06:52:00;17.30;90.10
73955;DHT22;62306;52.516;13.290;2023-06-14T06:54:28;17.20;90.20
73955;DHT22;62306;52.516;13.290;2023-06-14T06:56:55;17.10;90.50
73955;DHT22;62306;52.516;13.290;2023-06-14T06:59:22;17.10;90.70
73955;DHT22;62306;52.516;13.290;2023-06-14T07:01:49;17.40;90.40
73955;DHT22;62306;52.516;13.290;2023-06-14T07:04:16;17.40;90.00
73955;DHT22;62306;52.516;13.290;2023-06-14T07:06:43;17.50;90.10
73955;DHT22;62306;52.516;13.290;2023-06-14T07:09:11;17.60;89.20
73955;DHT22;62306;52.516;13.290;2023-06-14T07:11:41;17.50;89.70
73955;DHT22;62306;52.516;13.290;2023-06-14T07:14:07;17.40;90.00
73955;DHT22;62306;52.516;13.290;2023-06-14T07:16:34;17.50;90.20
73955;DHT22;62306;52.516;13.290;2023-06-14T07:19:01;17.60;89.30
73955;DHT22;62306;52.516;13.290;2023-06-14T07:21:28;17.50;89.50
73955;DHT22;62306;52.516;13.290;2023-06-14T07:23:56;17.50;89.40
73955;DHT22;62306;52.516;13.290;2023-06-14T07:26:24;17.50;89.60
73955;DHT22;62306;52.516;13.290;2023-06-14T07:28:51;17.50;89.60
73955;DHT22;62306;52.516;13.290;2023-06-14T07:31:19;17.70;89.80
73955;DHT22;62306;52.516;13.290;2023-06-14T07:33:46;17.70;89.20
73955;DHT22;62306;52.516;13.290;2023-06-14T07:36:13;17.90;88.70
73955;DHT22;62306;52.516;13.290;2023-06-14T07:38:39;18.10;88.10
73955;DHT22;62306;52.516;13.290;2023-06-14T07:41:07;18.30;87.80
73955;DHT22;62306;52.516;13.290;2023-06-14T07:43:35;18.70;86.30
73955;DHT22;62306;52.516;13.290;2023-06-14T07:46:02;19.10;85.50
73955;DHT22;62306;52.516;13.290;2023-06-14T07:48:29;19.70;83.10
73955;DHT22;62306;52.516;13.290;2023-06-14T07:50:56;20.40;81.30
73955;DHT22;62306;52.516;13.290;2023-06-14T07:53:23;20.80;78.70
73955;DHT22;62306;52.516;13.290;2023-06-14T07:55:50;21.00;77.90
73955;DHT22;62306;52.516;13.290;2023-06-14T07:58:17;21.40;76.30
73955;DHT22;62306;52.516;13.290;2023-06-14T08:00:45;21.60;74.20
73955;DHT22;62306;52.516;13.290;2023-06-14T08:03:12;22.00;72.60
73955;DHT22;62306;52.516;13.290;2023-06-14T08:05:39;21.80;73.10
73955;DHT22;62306;52.516;13.290;2023-06-14T08:08:06;21.90;70.90
73955;DHT22;62306;52.516;13.290;2023-06-14T08:10:33;21.70;71.80
73955;DHT22;62306;52.516;13.290;2023-06-14T08:13:00;21.70;70.70
73955;DHT22;62306;52.516;13.290;2023-06-14T08:15:27;21.80;71.50
73955;DHT22;62306;52.516;13.290;2023-06-14T08:17:55;22.00;71.10
73955;DHT22;62306;52.516;13.290;2023-06-14T08:20:23;22.30;69.60
73955;DHT22;62306;52.516;13.290;2023-06-14T08:22:50;22.00;69.70
73955;DHT22;62306;52.516;13.290;2023-06-14T08:25:20;21.40;71.50
73955;DHT22;62306;52.516;13.290;2023-06-14T08:27:47;21.20;71.60
73955;DHT22;62306;52.516;13.290;2023-06-14T08:30:15;21.20;71.20
73955;DHT22;62306;52.516;13.290;2023-06-14T08:32:43;20.80;71.90
73955;DHT22;62306;52.516;13.290;2023-06-14T08:35:11;20.80;73.20
73955;DHT22;62306;52.516;13.290;2023-06-14T08:37:39;20.80;72.90
73955;DHT22;62306;52.516;13.290;2023-06-14T08:40:17;20.80;71.80
73955;DHT22;62306;52.516;13.290;2023-06-14T08:42:47;20.90;72.40
73955;DHT22;62306;52.516;13.290;2023-06-14T08:45:14;20.90;71.90
73955;DHT22;62306;52.516;13.290;2023-06-14T08:47:41;21.20;70.70
73955;DHT22;62306;52.516;13.290;2023-06-14T08:50:08;21.60;69.60
73955;DHT22;62306;52.516;13.290;2023-06-14T08:52:38;22.00;68.30
73955;DHT22;62306;52.516;13.290;2023-06-14T08:55:06;22.50;66.60
73955;DHT22;62306;52.516;13.290;2023-06-14T08:57:36;22.70;65.30
73955;DHT22;62306;52.516;13.290;2023-06-14T09:00:05;22.70;65.20
73955;DHT22;62306;52.516;13.290;2023-06-14T09:02:38;22.20;66.00
73955;DHT22;62306;52.516;13.290;2023-06-14T09:05:09;21.80;67.10
73955;DHT22;62306;52.516;13.290;2023-06-14T09:07:38;21.60;67.30
73955;DHT22;62306;52.516;13.290;2023-06-14T09:10:08;21.50;67.60
73955;DHT22;62306;52.516;13.290;2023-06-14T09:12:35;21.30;66.90
73955;DHT22;62306;52.516;13.290;2023-06-14T09:15:03;20.90;68.90
73955;DHT22;62306;52.516;13.290;2023-06-14T09:17:33;21.00;69.10
73955;DHT22;62306;52.516;13.290;2023-06-14T09:20:01;21.00;68.40
73955;DHT22;62306;52.516;13.290;2023-06-14T09:22:30;21.40;68.00
73955;DHT22;62306;52.516;13.290;2023-06-14T09:24:59;21.80;66.10
73955;DHT22;62306;52.516;13.290;2023-06-14T09:27:26;22.10;63.90
73955;DHT22;62306;52.516;13.290;2023-06-14T09:29:54;21.70;62.90
73955;DHT22;62306;52.516;13.290;2023-06-14T09:32:21;21.90;64.10
73955;DHT22;62306;52.516;13.290;2023-06-14T09:34:48;22.00;63.90
73955;DHT22;62306;52.516;13.290;2023-06-14T09:37:27;22.10;64.00
73955;DHT22;62306;52.516;13.290;2023-06-14T09:39:54;21.80;64.10
73955;DHT22;62306;52.516;13.290;2023-06-14T09:42:22;22.00;64.50
73955;DHT22;62306;52.516;13.290;2023-06-14T09:44:52;21.90;64.60
73955;DHT22;62306;52.516;13.290;2023-06-14T09:47:20;22.10;64.80
73955;DHT22;62306;52.516;13.290;2023-06-14T09:49:47;22.40;64.50
73955;DHT22;62306;52.516;13.290;2023-06-14T09:52:15;22.70;63.50
73955;DHT22;62306;52.516;13.290;2023-06-14T09:54:43;22.70;63.40
73955;DHT22;62306;52.516;13.290;2023-06-14T09:57:12;22.50;63.40
73955;DHT22;62306;52.516;13.290;2023-06-14T09:59:42;22.60;63.60
73955;DHT22;62306;52.516;13.290;2023-06-14T10:02:14;22.80;62.40
73955;DHT22;62306;52.516;13.290;2023-06-14T10:04:48;22.40;62.60
73955;DHT22;62306;52.516;13.290;2023-06-14T10:07:19;22.20;61.90
73955;DHT22;62306;52.516;13.290;2023-06-14T10:09:47;21.90;63.70
73955;DHT22;62306;52.516;13.290;2023-06-14T10:12:16;22.00;62.70
73955;DHT22;62306;52.516;13.290;2023-06-14T10:14:49;22.10;63.30
73955;DHT22;62306;52.516;13.290;2023-06-14T10:17:23;22.20;62.50
73955;DHT22;62306;52.516;13.290;2023-06-14T10:19:54;22.00;62.60
73955;DHT22;62306;52.516;13.290;2023-06-14T10:22:26;22.10;62.70
73955;DHT22;62306;52.516;13.290;2023-06-14T10:24:56;22.30;62.90
73955;DHT22;62306;52.516;13.290;2023-06-14T10:27:23;22.40;62.00
73955;DHT22;62306;52.516;13.290;2023-06-14T10:30:06;22.50;61.80
73955;DHT22;62306;52.516;13.290;2023-06-14T10:32:35;22.60;60.60
73955;DHT22;62306;52.516;13.290;2023-06-14T10:35:05;22.60;62.60
73955;DHT22;62306;52.516;13.290;2023-06-14T10:37:33;22.80;61.90
73955;DHT22;62306;52.516;13.290;2023-06-14T10:40:00;23.00;61.30
73955;DHT22;62306;52.516;13.290;2023-06-14T10:42:29;23.10;61.00
73955;DHT22;62306;52.516;13.290;2023-06-14T10:44:59;23.40;60.60
73955;DHT22;62306;52.516;13.290;2023-06-14T10:47:31;23.40;59.00
73955;DHT22;62306;52.516;13.290;2023-06-14T10:50:04;23.00;60.10
73955;DHT22;62306;52.516;13.290;2023-06-14T10:52:33;23.00;60.60
73955;DHT22;62306;52.516;13.290;2023-06-14T10:55:10;23.00;61.00
73955;DHT22;62306;52.516;13.290;2023-06-14T10:57:40;23.00;61.00
73955;DHT22;62306;52.516;13.290;2023-06-14T11:00:08;23.10;59.50
73955;DHT22;62306;52.516;13.290;2023-06-14T11:03:27;23.10;59.80
73955;DHT22;62306;52.516;13.290;2023-06-14T11:05:58;23.10;59.60
73955;DHT22;62306;52.516;13.290;2023-06-14T11:11:33;23.00;59.80
73955;DHT22;62306;52.516;13.290;2023-06-14T11:14:02;23.10;59.60
73955;DHT22;62306;52.516;13.290;2023-06-14T11:16:28;23.10;59.30
73955;DHT22;62306;52.516;13.290;2023-06-14T11:19:00;23.00;59.10
73955;DHT22;62306;52.516;13.290;2023-06-14T11:21:28;23.30;58.90
73955;DHT22;62306;52.516;13.290;2023-06-14T11:23:57;23.40;57.70
73955;DHT22;62306;52.516;13.290;2023-06-14T11:26:27;23.10;55.80
73955;DHT22;62306;52.516;13.290;2023-06-14T11:28:58;23.00;57.40
73955;DHT22;62306;52.516;13.290;2023-06-14T11:31:26;22.90;57.40
73955;DHT22;62306;52.516;13.290;2023-06-14T11:33:54;23.00;58.00
73955;DHT22;62306;52.516;13.290;2023-06-14T11:36:25;23.00;58.50
73955;DHT22;62306;52.516;13.290;2023-06-14T11:38:58;23.10;56.30
73955;DHT22;62306;52.516;13.290;2023-06-14T11:41:26;22.80;55.60
73955;DHT22;62306;52.516;13.290;2023-06-14T11:44:00;22.50;57.00
73955;DHT22;62306;52.516;13.290;2023-06-14T11:46:27;22.50;57.70
73955;DHT22;62306;52.516;13.290;2023-06-14T11:48:54;22.70;57.80
73955;DHT22;62306;52.516;13.290;2023-06-14T11:51:22;22.70;56.70
73955;DHT22;62306;52.516;13.290;2023-06-14T11:53:49;23.40;55.20
73955;DHT22;62306;52.516;13.290;2023-06-14T11:56:17;23.60;54.80
73955;DHT22;62306;52.516;13.290;2023-06-14T11:58:44;24.00;53.40
73955;DHT22;62306;52.516;13.290;2023-06-14T12:01:16;24.40;53.30
73955;DHT22;62306;52.516;13.290;2023-06-14T12:03:47;24.70;52.50
73955;DHT22;62306;52.516;13.290;2023-06-14T12:06:15;24.80;52.20
73955;DHT22;62306;52.516;13.290;2023-06-14T12:08:45;24.60;51.20
73955;DHT22;62306;52.516;13.290;2023-06-14T12:11:15;24.60;53.10
73955;DHT22;62306;52.516;13.290;2023-06-14T12:13:42;24.50;50.30
73955;DHT22;62306;52.516;13.290;2023-06-14T12:16:10;24.10;51.90
73955;DHT22;62306;52.516;13.290;2023-06-14T12:18:38;23.80;51.80
73955;DHT22;62306;52.516;13.290;2023-06-14T12:21:05;23.80;50.90
73955;DHT22;62306;52.516;13.290;2023-06-14T12:23:42;23.70;51.40
73955;DHT22;62306;52.516;13.290;2023-06-14T12:26:12;23.60;51.00
73955;DHT22;62306;52.516;13.290;2023-06-14T12:28:40;23.50;50.60
73955;DHT22;62306;52.516;13.290;2023-06-14T12:31:08;23.40;51.10
73955;DHT22;62306;52.516;13.290;2023-06-14T12:33:35;23.60;50.90
73955;DHT22;62306;52.516;13.290;2023-06-14T12:36:04;23.80;50.60
73955;DHT22;62306;52.516;13.290;2023-06-14T12:38:31;24.10;49.90
73955;DHT22;62306;52.516;13.290;2023-06-14T12:40:58;24.20;49.50
73955;DHT22;62306;52.516;13.290;2023-06-14T12:43:26;24.20;49.60
73955;DHT22;62306;52.516;13.290;2023-06-14T12:45:53;24.30;47.60
73955;DHT22;62306;52.516;13.290;2023-06-14T12:48:20;24.20;47.70
73955;DHT22;62306;52.516;13.290;2023-06-14T12:50:48;24.40;47.30
73955;DHT22;62306;52.516;13.290;2023-06-14T12:53:15;24.40;46.60
73955;DHT22;62306;52.516;13.290;2023-06-14T12:55:42;24.60;46.50
73955;DHT22;62306;52.516;13.290;2023-06-14T12:58:09;24.50;46.70
73955;DHT22;62306;52.516;13.290;2023-06-14T13:00:39;24.60;47.30
73955;DHT22;62306;52.516;13.290;2023-06-14T13:03:06;24.50;46.40
73955;DHT22;62306;52.516;13.290;2023-06-14T13:05:33;24.50;45.70
73955;DHT22;62306;52.516;13.290;2023-06-14T13:08:00;24.40;45.50
73955;DHT22;62306;52.516;13.290;2023-06-14T13:10:27;24.40;45.50
73955;DHT22;62306;52.516;13.290;2023-06-14T13:12:54;24.30;45.50
73955;DHT22;62306;52.516;13.290;2023-06-14T13:15:23;24.40;45.80
73955;DHT22;62306;52.516;13.290;2023-06-14T13:17:51;24.60;45.30
73955;DHT22;62306;52.516;13.290;2023-06-14T13:20:18;24.40;45.10
73955;DHT22;62306;52.516;13.290;2023-06-14T13:22:45;24.00;46.20
73955;DHT22;62306;52.516;13.290;2023-06-14T13:25:12;23.90;46.30
73955;DHT22;62306;52.516;13.290;2023-06-14T13:27:39;24.10;45.80
73955;DHT22;62306;52.516;13.290;2023-06-14T13:30:07;24.20;46.00
73955;DHT22;62306;52.516;13.290;2023-06-14T13:32:34;24.10;46.60
73955;DHT22;62306;52.516;13.290;2023-06-14T13:35:03;24.20;46.50
73955;DHT22;62306;52.516;13.290;2023-06-14T13:37:30;24.30;45.50
73955;DHT22;62306;52.516;13.290;2023-06-14T13:39:57;24.60;45.00
73955;DHT22;62306;52.516;13.290;2023-06-14T13:42:24;24.70;44.70
73955;DHT22;62306;52.516;13.290;2023-06-14T13:44:51;24.50;44.40
73955;DHT22;62306;52.516;13.290;2023-06-14T13:47:18;24.60;45.20
73955;DHT22;62306;52.516;13.290;2023-06-14T13:49:45;24.90;44.00
73955;DHT22;62306;52.516;13.290;2023-06-14T13:52:13;25.00;44.60
73955;DHT22;62306;52.516;13.290;2023-06-14T13:54:41;25.00;44.30
73955;DHT22;62306;52.516;13.290;2023-06-14T13:57:09;24.80;43.30
73955;DHT22;62306;52.516;13.290;2023-06-14T13:59:38;24.70;43.50
73955;DHT22;62306;52.516;13.290;2023-06-14T14:02:05;24.60;41.90
73955;DHT22;62306;52.516;13.290;2023-06-14T14:04:33;24.60;41.30
73955;DHT22;62306;52.516;13.290;2023-06-14T14:07:00;24.60;41.90
73955;DHT22;62306;52.516;13.290;2023-06-14T14:09:28;24.60;42.60
73955;DHT22;62306;52.516;13.290;2023-06-14T14:11:56;24.60;42.80
73955;DHT22;62306;52.516;13.290;2023-06-14T14:14:22;24.60;42.40
73955;DHT22;62306;52.516;13.290;2023-06-14T14:16:50;24.60;42.50
73955;DHT22;62306;52.516;13.290;2023-06-14T14:19:19;24.80;42.30
73955;DHT22;62306;52.516;13.290;2023-06-14T14:21:46;24.90;41.80
73955;DHT22;62306;52.516;13.290;2023-06-14T14:24:12;24.90;42.60
73955;DHT22;62306;52.516;13.290;2023-06-14T14:26:41;24.80;42.70
73955;DHT22;62306;52.516;13.290;2023-06-14T14:29:08;24.60;44.50
73955;DHT22;62306;52.516;13.290;2023-06-14T14:31:37;24.50;45.20
73955;DHT22;62306;52.516;13.290;2023-06-14T14:34:04;24.30;45.60
73955;DHT22;62306;52.516;13.290;2023-06-14T14:36:31;24.10;46.20
73955;DHT22;62306;52.516;13.290;2023-06-14T14:38:58;23.90;46.60
73955;DHT22;62306;52.516;13.290;2023-06-14T14:41:25;23.80;47.00
73955;DHT22;62306;52.516;13.290;2023-06-14T14:43:53;23.80;47.30
73955;DHT22;62306;52.516;13.290;2023-06-14T14:46:20;23.80;47.00
73955;DHT22;62306;52.516;13.290;2023-06-14T14:48:48;23.90;47.00
73955;DHT22;62306;52.516;13.290;2023-06-14T14:51:15;24.10;46.50
73955;DHT22;62306;52.516;13.290;2023-06-14T14:53:41;23.90;46.90
73955;DHT22;62306;52.516;13.290;2023-06-14T14:56:08;23.90;46.60
73955;DHT22;62306;52.516;13.290;2023-06-14T14:58:37;23.70;47.50
73955;DHT22;62306;52.516;13.290;2023-06-14T15:01:05;23.70;47.70
73955;DHT22;62306;52.516;13.290;2023-06-14T15:03:33;23.30;47.70
73955;DHT22;62306;52.516;13.290;2023-06-14T15:06:00;23.10;48.00
73955;DHT22;62306;52.516;13.290;2023-06-14T15:08:26;23.00;48.60
73955;DHT22;62306;52.516;13.290;2023-06-14T15:10:53;23.00;48.70
73955;DHT22;62306;52.516;13.290;2023-06-14T15:13:20;23.00;48.80
73955;DHT22;62306;52.516;13.290;2023-06-14T15:15:48;23.00;48.80
73955;DHT22;62306;52.516;13.290;2023-06-14T15:18:17;23.10;49.30
73955;DHT22;62306;52.516;13.290;2023-06-14T15:20:46;23.10;48.80
73955;DHT22;62306;52.516;13.290;2023-06-14T15:23:12;23.10;48.60
73955;DHT22;62306;52.516;13.290;2023-06-14T15:25:45;23.10;48.60